sensor_id;sensor_type;location;lat;lon;timestamp;temperature;humidity
666;DHT22;315;48.738;9.126;2023-06-22T00:01:52;21.40;99.90
666;DHT22;315;48.738;9.126;2023-06-22T00:04:18;21.40;99.90
666;DHT22;315;48.738;9.126;2023-06-22T00:06:43;21.40;99.90
666;DHT22;315;48.738;9.126;2023-06-22T00:09:09;21.50;99.90
666;DHT22;315;48.738;9.126;2023-06-22T00:11:36;21.50;99.90
666;DHT22;315;48.738;9.126;2023-06-22T00:14:02;21.60;99.90
666;DHT22;315;48.738;9.126;2023-06-22T00:16:27;21.60;99.90
666;DHT22;315;48.738;9.126;2023-06-22T00:18:53;21.50;99.90
666;DHT22;315;48.738;9.126;2023-06-22T00:21:18;21.50;99.90
666;DHT22;315;48.738;9.126;2023-06-22T00:23:46;21.40;99.90
666;DHT22;315;48.738;9.126;2023-06-22T00:26:12;21.50;99.90
666;DHT22;315;48.738;9.126;2023-06-22T00:28:37;21.50;99.90
666;DHT22;315;48.738;9.126;2023-06-22T00:31:03;21.40;99.90
666;DHT22;315;48.738;9.126;2023-06-22T00:33:28;21.40;99.90
666;DHT22;315;48.738;9.126;2023-06-22T00:35:54;21.50;99.90
666;DHT22;315;48.738;9.126;2023-06-22T00:38:20;21.30;99.90
666;DHT22;315;48.738;9.126;2023-06-22T00:40:46;21.20;99.90
666;DHT22;315;48.738;9.126;2023-06-22T00:43:11;21.10;99.90
666;DHT22;315;48.738;9.126;2023-06-22T00:45:37;21.20;99.90
666;DHT22;315;48.738;9.126;2023-06-22T00:48:03;21.20;99.90
666;DHT22;315;48.738;9.126;2023-06-22T00:50:30;21.30;99.90
666;DHT22;315;48.738;9.126;2023-06-22T00:53:08;21.30;99.90
666;DHT22;315;48.738;9.126;2023-06-22T00:55:44;21.30;99.90
666;DHT22;315;48.738;9.126;2023-06-22T00:58:17;21.30;99.90
666;DHT22;315;48.738;9.126;2023-06-22T01:00:46;21.30;99.90
666;DHT22;315;48.738;9.126;2023-06-22T01:03:12;21.20;99.90
666;DHT22;315;48.738;9.126;2023-06-22T01:05:39;21.20;99.90
666;DHT22;315;48.738;9.126;2023-06-22T01:08:31;21.20;99.90
666;DHT22;315;48.738;9.126;2023-06-22T01:11:26;21.00;99.90
666;DHT22;315;48.738;9.126;2023-06-22T01:14:14;20.90;99.90
666;DHT22;315;48.738;9.126;2023-06-22T01:16:41;20.90;99.90
666;DHT22;315;48.738;9.126;2023-06-22T01:21:44;20.80;99.90
666;DHT22;315;48.738;9.126;2023-06-22T01:27:31;20.70;99.90
666;DHT22;315;48.738;9.126;2023-06-22T01:29:59;20.70;99.90
666;DHT22;315;48.738;9.126;2023-06-22T01:32:33;20.60;99.90
666;DHT22;315;48.738;9.126;2023-06-22T01:35:01;20.40;99.90
666;DHT22;315;48.738;9.126;2023-06-22T01:37:29;20.40;99.90
666;DHT22;315;48.738;9.126;2023-06-22T01:39:58;20.30;99.90
666;DHT22;315;48.738;9.126;2023-06-22T01:42:24;20.30;99.90
666;DHT22;315;48.738;9.126;2023-06-22T01:44:52;20.40;99.90
666;DHT22;315;48.738;9.126;2023-06-22T01:47:18;20.30;99.90
666;DHT22;315;48.738;9.126;2023-06-22T01:49:44;20.30;99.90
666;DHT22;315;48.738;9.126;2023-06-22T01:52:11;20.20;99.90
666;DHT22;315;48.738;9.126;2023-06-22T01:54:39;20.10;99.90
666;DHT22;315;48.738;9.126;2023-06-22T01:57:05;20.10;99.90
666;DHT22;315;48.738;9.126;2023-06-22T01:59:55;20.10;99.90
666;DHT22;315;48.738;9.126;2023-06-22T02:02:21;20.20;99.90
666;DHT22;315;48.738;9.126;2023-06-22T02:04:57;20.30;99.90
666;DHT22;315;48.738;9.126;2023-06-22T02:07:28;20.20;99.90
666;DHT22;315;48.738;9.126;2023-06-22T02:09:55;20.30;99.90
666;DHT22;315;48.738;9.126;2023-06-22T02:12:23;20.20;99.90
666;DHT22;315;48.738;9.126;2023-06-22T02:14:51;20.20;99.90
666;DHT22;315;48.738;9.126;2023-06-22T02:17:17;20.10;99.90
666;DHT22;315;48.738;9.126;2023-06-22T02:19:43;20.00;99.90
666;DHT22;315;48.738;9.126;2023-06-22T02:22:09;20.00;99.90
666;DHT22;315;48.738;9.126;2023-06-22T02:24:35;20.00;99.90
666;DHT22;315;48.738;9.126;2023-06-22T02:27:01;20.00;99.90
666;DHT22;315;48.738;9.126;2023-06-22T02:29:27;19.90;99.90
666;DHT22;315;48.738;9.126;2023-06-22T02:31:54;19.80;99.90
666;DHT22;315;48.738;9.126;2023-06-22T02:34:20;19.70;99.90
666;DHT22;315;48.738;9.126;2023-06-22T02:36:47;19.90;99.90
666;DHT22;315;48.738;9.126;2023-06-22T02:39:24;19.90;99.90
666;DHT22;315;48.738;9.126;2023-06-22T02:41:51;19.90;99.90
666;DHT22;315;48.738;9.126;2023-06-22T02:44:17;19.70;99.90
666;DHT22;315;48.738;9.126;2023-06-22T02:46:43;19.70;99.90
666;DHT22;315;48.738;9.126;2023-06-22T02:49:09;19.60;99.90
666;DHT22;315;48.738;9.126;2023-06-22T02:51:35;19.60;99.90
666;DHT22;315;48.738;9.126;2023-06-22T02:54:01;19.70;99.90
666;DHT22;315;48.738;9.126;2023-06-22T02:56:28;19.80;99.90
666;DHT22;315;48.738;9.126;2023-06-22T02:58:53;19.80;99.90
666;DHT22;315;48.738;9.126;2023-06-22T03:01:19;19.70;99.90
666;DHT22;315;48.738;9.126;2023-06-22T03:03:49;19.80;99.90
666;DHT22;315;48.738;9.126;2023-06-22T03:06:15;19.70;99.90
666;DHT22;315;48.738;9.126;2023-06-22T03:08:40;19.70;99.90
666;DHT22;315;48.738;9.126;2023-06-22T03:11:07;19.70;99.90
666;DHT22;315;48.738;9.126;2023-06-22T03:13:33;19.70;99.90
666;DHT22;315;48.738;9.126;2023-06-22T03:15:58;19.70;99.90
666;DHT22;315;48.738;9.126;2023-06-22T03:18:24;19.70;99.90
666;DHT22;315;48.738;9.126;2023-06-22T03:20:49;19.60;99.90
666;DHT22;315;48.738;9.126;2023-06-22T03:23:15;19.60;99.90
666;DHT22;315;48.738;9.126;2023-06-22T03:25:41;19.60;99.90
666;DHT22;315;48.738;9.126;2023-06-22T03:28:07;19.60;99.90
666;DHT22;315;48.738;9.126;2023-06-22T03:30:32;19.70;99.90
666;DHT22;315;48.738;9.126;2023-06-22T03:32:58;19.60;99.90
666;DHT22;315;48.738;9.126;2023-06-22T03:35:23;19.70;99.90
666;DHT22;315;48.738;9.126;2023-06-22T03:37:49;19.70;99.90
666;DHT22;315;48.738;9.126;2023-06-22T03:40:14;19.70;99.90
666;DHT22;315;48.738;9.126;2023-06-22T03:42:40;19.70;99.90
666;DHT22;315;48.738;9.126;2023-06-22T03:45:06;19.80;99.90
666;DHT22;315;48.738;9.126;2023-06-22T03:47:32;19.80;99.90
666;DHT22;315;48.738;9.126;2023-06-22T03:49:58;19.80;99.90
666;DHT22;315;48.738;9.126;2023-06-22T03:52:24;19.80;99.90
666;DHT22;315;48.738;9.126;2023-06-22T03:54:50;20.10;99.90
666;DHT22;315;48.738;9.126;2023-06-22T03:57:16;19.80;99.90
666;DHT22;315;48.738;9.126;2023-06-22T03:59:41;19.80;99.90
666;DHT22;315;48.738;9.126;2023-06-22T04:02:07;19.70;99.90
666;DHT22;315;48.738;9.126;2023-06-22T04:04:32;19.70;99.90
666;DHT22;315;48.738;9.126;2023-06-22T04:07:00;19.80;99.90
666;DHT22;315;48.738;9.126;2023-06-22T04:09:26;20.00;99.90
666;DHT22;315;48.738;9.126;2023-06-22T04:11:51;20.10;99.90
666;DHT22;315;48.738;9.126;2023-06-22T04:14:17;20.10;99.90
666;DHT22;315;48.738;9.126;2023-06-22T04:16:43;20.10;99.90
666;DHT22;315;48.738;9.126;2023-06-22T04:19:08;20.20;99.90
666;DHT22;315;48.738;9.126;2023-06-22T04:21:39;20.20;99.90
666;DHT22;315;48.738;9.126;2023-06-22T04:24:05;20.20;99.90
666;DHT22;315;48.738;9.126;2023-06-22T04:26:30;20.30;99.90
666;DHT22;315;48.738;9.126;2023-06-22T04:28:56;20.50;99.90
666;DHT22;315;48.738;9.126;2023-06-22T04:31:21;20.60;99.90
666;DHT22;315;48.738;9.126;2023-06-22T04:33:49;20.70;99.90
666;DHT22;315;48.738;9.126;2023-06-22T04:36:16;20.80;99.90
666;DHT22;315;48.738;9.126;2023-06-22T04:38:42;20.90;99.90
666;DHT22;315;48.738;9.126;2023-06-22T04:41:07;20.90;99.90
666;DHT22;315;48.738;9.126;2023-06-22T04:43:34;21.00;99.90
666;DHT22;315;48.738;9.126;2023-06-22T04:46:00;21.10;99.90
666;DHT22;315;48.738;9.126;2023-06-22T04:48:29;21.20;99.90
666;DHT22;315;48.738;9.126;2023-06-22T04:50:59;21.30;99.90
666;DHT22;315;48.738;9.126;2023-06-22T04:53:28;21.30;99.90
666;DHT22;315;48.738;9.126;2023-06-22T04:55:55;21.40;99.90
666;DHT22;315;48.738;9.126;2023-06-22T04:58:20;21.40;99.90
666;DHT22;315;48.738;9.126;2023-06-22T05:00:47;21.40;99.90
666;DHT22;315;48.738;9.126;2023-06-22T05:03:12;21.50;99.90
666;DHT22;315;48.738;9.126;2023-06-22T05:05:38;21.60;99.90
666;DHT22;315;48.738;9.126;2023-06-22T05:08:03;21.80;99.90
666;DHT22;315;48.738;9.126;2023-06-22T05:10:32;21.90;99.90
666;DHT22;315;48.738;9.126;2023-06-22T05:12:58;22.00;99.90
666;DHT22;315;48.738;9.126;2023-06-22T05:15:24;22.20;99.90
666;DHT22;315;48.738;9.126;2023-06-22T05:17:53;22.40;99.90
666;DHT22;315;48.738;9.126;2023-06-22T05:20:19;22.50;99.90
666;DHT22;315;48.738;9.126;2023-06-22T05:22:44;22.70;99.90
666;DHT22;315;48.738;9.126;2023-06-22T05:25:10;22.80;99.90
666;DHT22;315;48.738;9.126;2023-06-22T05:27:36;22.90;99.90
666;DHT22;315;48.738;9.126;2023-06-22T05:30:08;23.00;99.90
666;DHT22;315;48.738;9.126;2023-06-22T05:32:34;23.10;99.90
666;DHT22;315;48.738;9.126;2023-06-22T05:35:00;23.20;99.90
666;DHT22;315;48.738;9.126;2023-06-22T05:37:26;23.40;99.90
666;DHT22;315;48.738;9.126;2023-06-22T05:39:51;23.60;99.90
666;DHT22;315;48.738;9.126;2023-06-22T05:42:17;23.60;99.90
666;DHT22;315;48.738;9.126;2023-06-22T05:44:42;23.70;99.90
666;DHT22;315;48.738;9.126;2023-06-22T05:47:08;23.90;99.90
666;DHT22;315;48.738;9.126;2023-06-22T05:49:33;24.00;99.90
666;DHT22;315;48.738;9.126;2023-06-22T05:51:59;23.90;99.90
666;DHT22;315;48.738;9.126;2023-06-22T05:54:26;24.00;99.90
666;DHT22;315;48.738;9.126;2023-06-22T05:56:52;24.20;99.90
666;DHT22;315;48.738;9.126;2023-06-22T05:59:18;24.20;99.90
666;DHT22;315;48.738;9.126;2023-06-22T06:01:43;24.20;99.90
666;DHT22;315;48.738;9.126;2023-06-22T06:04:09;24.20;99.90
666;DHT22;315;48.738;9.126;2023-06-22T06:06:34;24.10;99.90
666;DHT22;315;48.738;9.126;2023-06-22T06:09:03;24.00;99.90
666;DHT22;315;48.738;9.126;2023-06-22T06:11:29;23.90;99.90
666;DHT22;315;48.738;9.126;2023-06-22T06:13:54;23.90;99.90
666;DHT22;315;48.738;9.126;2023-06-22T06:16:20;23.80;99.90
666;DHT22;315;48.738;9.126;2023-06-22T06:18:46;23.90;99.90
666;DHT22;315;48.738;9.126;2023-06-22T06:21:13;24.10;99.90
666;DHT22;315;48.738;9.126;2023-06-22T06:23:39;24.30;99.90
666;DHT22;315;48.738;9.126;2023-06-22T06:26:04;24.40;99.90
666;DHT22;315;48.738;9.126;2023-06-22T06:28:32;24.50;99.90
666;DHT22;315;48.738;9.126;2023-06-22T06:30:58;24.70;99.90
666;DHT22;315;48.738;9.126;2023-06-22T06:33:23;25.00;99.90
666;DHT22;315;48.738;9.126;2023-06-22T06:35:49;25.20;99.90
666;DHT22;315;48.738;9.126;2023-06-22T06:38:15;25.30;99.90
666;DHT22;315;48.738;9.126;2023-06-22T06:40:40;25.50;99.90
666;DHT22;315;48.738;9.126;2023-06-22T06:43:06;25.70;99.90
666;DHT22;315;48.738;9.126;2023-06-22T06:45:32;25.80;99.90
666;DHT22;315;48.738;9.126;2023-06-22T06:47:59;26.00;99.90
666;DHT22;315;48.738;9.126;2023-06-22T06:50:25;26.20;99.90
666;DHT22;315;48.738;9.126;2023-06-22T06:52:50;26.20;99.90
666;DHT22;315;48.738;9.126;2023-06-22T06:55:17;26.50;99.90
666;DHT22;315;48.738;9.126;2023-06-22T06:57:42;26.60;99.90
666;DHT22;315;48.738;9.126;2023-06-22T07:00:10;26.90;99.90
666;DHT22;315;48.738;9.126;2023-06-22T07:02:41;27.10;99.90
666;DHT22;315;48.738;9.126;2023-06-22T07:05:08;27.30;99.90
666;DHT22;315;48.738;9.126;2023-06-22T07:07:34;27.50;99.90
666;DHT22;315;48.738;9.126;2023-06-22T07:10:00;27.60;99.90
666;DHT22;315;48.738;9.126;2023-06-22T07:12:25;27.60;99.90
666;DHT22;315;48.738;9.126;2023-06-22T07:14:52;27.70;99.90
666;DHT22;315;48.738;9.126;2023-06-22T07:17:18;27.90;99.90
666;DHT22;315;48.738;9.126;2023-06-22T07:19:43;28.20;99.90
666;DHT22;315;48.738;9.126;2023-06-22T07:22:09;28.30;99.90
666;DHT22;315;48.738;9.126;2023-06-22T07:24:34;28.40;99.90
666;DHT22;315;48.738;9.126;2023-06-22T07:27:00;28.50;99.90
666;DHT22;315;48.738;9.126;2023-06-22T07:29:26;28.60;99.90
666;DHT22;315;48.738;9.126;2023-06-22T07:31:52;28.70;99.90
666;DHT22;315;48.738;9.126;2023-06-22T07:34:18;28.60;99.90
666;DHT22;315;48.738;9.126;2023-06-22T07:36:44;28.80;99.90
666;DHT22;315;48.738;9.126;2023-06-22T07:39:10;28.70;99.90
666;DHT22;315;48.738;9.126;2023-06-22T07:41:36;28.80;99.90
666;DHT22;315;48.738;9.126;2023-06-22T07:44:02;28.90;99.90
666;DHT22;315;48.738;9.126;2023-06-22T07:46:29;29.00;99.90
666;DHT22;315;48.738;9.126;2023-06-22T07:48:56;29.10;99.90
666;DHT22;315;48.738;9.126;2023-06-22T07:51:21;29.10;99.90
666;DHT22;315;48.738;9.126;2023-06-22T07:53:47;29.30;99.90
666;DHT22;315;48.738;9.126;2023-06-22T07:56:13;29.40;99.90
666;DHT22;315;48.738;9.126;2023-06-22T07:58:39;29.60;99.90
666;DHT22;315;48.738;9.126;2023-06-22T08:01:05;29.60;99.90
666;DHT22;315;48.738;9.126;2023-06-22T08:03:31;29.70;99.90
666;DHT22;315;48.738;9.126;2023-06-22T08:05:57;30.10;99.90
666;DHT22;315;48.738;9.126;2023-06-22T08:08:22;30.40;99.90
666;DHT22;315;48.738;9.126;2023-06-22T08:10:48;30.90;99.90
666;DHT22;315;48.738;9.126;2023-06-22T08:13:13;31.30;99.90
666;DHT22;315;48.738;9.126;2023-06-22T08:15:39;31.70;98.50
666;DHT22;315;48.738;9.126;2023-06-22T08:18:05;31.90;97.60
666;DHT22;315;48.738;9.126;2023-06-22T08:20:30;31.90;97.10
666;DHT22;315;48.738;9.126;2023-06-22T08:22:56;30.80;96.80
666;DHT22;315;48.738;9.126;2023-06-22T08:25:23;30.60;98.10
666;DHT22;315;48.738;9.126;2023-06-22T08:27:49;30.20;98.80
666;DHT22;315;48.738;9.126;2023-06-22T08:30:15;30.10;98.60
666;DHT22;315;48.738;9.126;2023-06-22T08:32:41;30.10;99.90
666;DHT22;315;48.738;9.126;2023-06-22T08:35:07;29.90;99.90
666;DHT22;315;48.738;9.126;2023-06-22T08:37:35;29.80;99.90
666;DHT22;315;48.738;9.126;2023-06-22T08:40:03;30.10;99.90
666;DHT22;315;48.738;9.126;2023-06-22T08:42:37;29.90;99.90
666;DHT22;315;48.738;9.126;2023-06-22T08:45:03;30.40;99.70
666;DHT22;315;48.738;9.126;2023-06-22T08:47:29;30.30;99.10
666;DHT22;315;48.738;9.126;2023-06-22T08:49:55;30.10;99.90
666;DHT22;315;48.738;9.126;2023-06-22T08:52:20;30.00;99.90
666;DHT22;315;48.738;9.126;2023-06-22T08:54:47;30.40;99.90
666;DHT22;315;48.738;9.126;2023-06-22T08:57:12;31.00;98.70
666;DHT22;315;48.738;9.126;2023-06-22T08:59:38;30.50;98.90
666;DHT22;315;48.738;9.126;2023-06-22T09:02:03;30.20;99.20
666;DHT22;315;48.738;9.126;2023-06-22T09:04:29;30.40;98.90
666;DHT22;315;48.738;9.126;2023-06-22T09:06:54;30.20;99.90
666;DHT22;315;48.738;9.126;2023-06-22T09:09:21;29.60;99.90
666;DHT22;315;48.738;9.126;2023-06-22T09:11:47;29.60;99.90
666;DHT22;315;48.738;9.126;2023-06-22T09:14:12;29.80;99.90
666;DHT22;315;48.738;9.126;2023-06-22T09:16:38;30.30;99.90
666;DHT22;315;48.738;9.126;2023-06-22T09:19:04;30.60;99.70
666;DHT22;315;48.738;9.126;2023-06-22T09:21:29;31.20;99.90
666;DHT22;315;48.738;9.126;2023-06-22T09:23:55;31.40;97.10
666;DHT22;315;48.738;9.126;2023-06-22T09:26:21;31.70;96.80
666;DHT22;315;48.738;9.126;2023-06-22T09:28:47;32.10;96.40
666;DHT22;315;48.738;9.126;2023-06-22T09:31:13;32.20;95.20
666;DHT22;315;48.738;9.126;2023-06-22T09:33:40;32.60;94.90
666;DHT22;315;48.738;9.126;2023-06-22T09:36:06;32.80;94.40
666;DHT22;315;48.738;9.126;2023-06-22T09:38:35;33.10;93.40
666;DHT22;315;48.738;9.126;2023-06-22T09:41:00;33.40;92.70
666;DHT22;315;48.738;9.126;2023-06-22T09:43:26;32.80;92.60
666;DHT22;315;48.738;9.126;2023-06-22T09:45:52;32.30;93.20
666;DHT22;315;48.738;9.126;2023-06-22T09:48:17;32.50;93.30
666;DHT22;315;48.738;9.126;2023-06-22T09:50:43;32.70;92.70
666;DHT22;315;48.738;9.126;2023-06-22T09:53:08;32.90;92.20
666;DHT22;315;48.738;9.126;2023-06-22T09:55:34;32.60;92.80
666;DHT22;315;48.738;9.126;2023-06-22T09:57:59;33.10;92.20
666;DHT22;315;48.738;9.126;2023-06-22T10:00:25;33.20;91.50
666;DHT22;315;48.738;9.126;2023-06-22T10:02:52;33.20;91.90
666;DHT22;315;48.738;9.126;2023-06-22T10:05:17;33.80;91.30
666;DHT22;315;48.738;9.126;2023-06-22T10:07:43;34.20;90.00
666;DHT22;315;48.738;9.126;2023-06-22T10:10:10;34.40;89.10
666;DHT22;315;48.738;9.126;2023-06-22T10:12:36;33.40;88.80
666;DHT22;315;48.738;9.126;2023-06-22T10:15:02;33.00;90.50
666;DHT22;315;48.738;9.126;2023-06-22T10:17:27;33.00;90.40
666;DHT22;315;48.738;9.126;2023-06-22T10:19:53;33.20;90.20
666;DHT22;315;48.738;9.126;2023-06-22T10:22:19;32.90;90.40
666;DHT22;315;48.738;9.126;2023-06-22T10:24:44;33.60;89.60
666;DHT22;315;48.738;9.126;2023-06-22T10:27:11;33.60;88.90
666;DHT22;315;48.738;9.126;2023-06-22T10:29:37;33.60;89.80
666;DHT22;315;48.738;9.126;2023-06-22T10:32:03;34.00;86.50
666;DHT22;315;48.738;9.126;2023-06-22T10:34:29;34.90;84.60
666;DHT22;315;48.738;9.126;2023-06-22T10:36:54;34.90;83.90
666;DHT22;315;48.738;9.126;2023-06-22T10:39:20;35.60;83.20
666;DHT22;315;48.738;9.126;2023-06-22T10:41:45;37.00;80.00
666;DHT22;315;48.738;9.126;2023-06-22T10:44:11;38.30;76.30
666;DHT22;315;48.738;9.126;2023-06-22T10:46:37;38.00;72.90
666;DHT22;315;48.738;9.126;2023-06-22T10:49:03;38.00;71.50
666;DHT22;315;48.738;9.126;2023-06-22T10:51:29;37.30;70.50
666;DHT22;315;48.738;9.126;2023-06-22T10:53:54;37.10;71.10
666;DHT22;315;48.738;9.126;2023-06-22T10:56:20;36.50;71.60
666;DHT22;315;48.738;9.126;2023-06-22T10:58:46;35.00;74.30
666;DHT22;315;48.738;9.126;2023-06-22T11:01:11;34.90;75.90
666;DHT22;315;48.738;9.126;2023-06-22T11:03:37;34.70;77.70
666;DHT22;315;48.738;9.126;2023-06-22T11:06:02;34.50;77.10
666;DHT22;315;48.738;9.126;2023-06-22T11:08:28;34.80;76.90
666;DHT22;315;48.738;9.126;2023-06-22T11:10:53;34.80;76.40
666;DHT22;315;48.738;9.126;2023-06-22T11:13:19;34.70;77.00
666;DHT22;315;48.738;9.126;2023-06-22T11:15:45;34.10;77.40
666;DHT22;315;48.738;9.126;2023-06-22T11:18:10;33.60;79.10
666;DHT22;315;48.738;9.126;2023-06-22T11:20:36;33.80;79.40
666;DHT22;315;48.738;9.126;2023-06-22T11:23:04;33.60;80.30
666;DHT22;315;48.738;9.126;2023-06-22T11:25:31;33.50;80.50
666;DHT22;315;48.738;9.126;2023-06-22T11:27:56;33.50;81.50
666;DHT22;315;48.738;9.126;2023-06-22T11:30:22;33.60;81.00
666;DHT22;315;48.738;9.126;2023-06-22T11:32:48;33.80;80.90
666;DHT22;315;48.738;9.126;2023-06-22T11:35:14;34.20;80.70
666;DHT22;315;48.738;9.126;2023-06-22T11:37:39;34.40;78.30
666;DHT22;315;48.738;9.126;2023-06-22T11:40:05;35.10;77.70
666;DHT22;315;48.738;9.126;2023-06-22T11:42:34;35.50;76.00
666;DHT22;315;48.738;9.126;2023-06-22T11:45:00;35.30;75.20
666;DHT22;315;48.738;9.126;2023-06-22T11:47:25;35.80;75.50
666;DHT22;315;48.738;9.126;2023-06-22T11:49:51;36.20;73.70
666;DHT22;315;48.738;9.126;2023-06-22T11:52:16;36.40;73.00
666;DHT22;315;48.738;9.126;2023-06-22T11:54:43;36.40;72.10
666;DHT22;315;48.738;9.126;2023-06-22T11:57:08;35.40;72.60
666;DHT22;315;48.738;9.126;2023-06-22T11:59:34;35.20;74.10
666;DHT22;315;48.738;9.126;2023-06-22T12:02:00;35.20;74.90
666;DHT22;315;48.738;9.126;2023-06-22T12:04:25;35.00;74.80
666;DHT22;315;48.738;9.126;2023-06-22T12:06:51;34.60;76.70
666;DHT22;315;48.738;9.126;2023-06-22T12:09:16;33.90;79.50
666;DHT22;315;48.738;9.126;2023-06-22T12:11:42;34.00;79.40
666;DHT22;315;48.738;9.126;2023-06-22T12:14:07;33.70;80.70
666;DHT22;315;48.738;9.126;2023-06-22T12:16:33;32.90;84.10
666;DHT22;315;48.738;9.126;2023-06-22T12:18:58;33.10;85.20
666;DHT22;315;48.738;9.126;2023-06-22T12:21:24;33.50;83.90
666;DHT22;315;48.738;9.126;2023-06-22T12:23:49;33.60;83.80
666;DHT22;315;48.738;9.126;2023-06-22T12:26:16;33.70;84.50
666;DHT22;315;48.738;9.126;2023-06-22T12:28:41;33.60;84.60
666;DHT22;315;48.738;9.126;2023-06-22T12:31:07;33.30;86.40
666;DHT22;315;48.738;9.126;2023-06-22T12:33:32;33.10;86.90
666;DHT22;315;48.738;9.126;2023-06-22T12:35:58;32.80;87.80
666;DHT22;315;48.738;9.126;2023-06-22T12:38:23;32.40;90.00
666;DHT22;315;48.738;9.126;2023-06-22T12:40:52;32.00;90.30
666;DHT22;315;48.738;9.126;2023-06-22T12:43:18;31.70;90.60
666;DHT22;315;48.738;9.126;2023-06-22T12:45:43;31.60;91.60
666;DHT22;315;48.738;9.126;2023-06-22T12:48:09;31.40;91.80
666;DHT22;315;48.738;9.126;2023-06-22T12:50:34;31.30;92.40
666;DHT22;315;48.738;9.126;2023-06-22T12:53:00;31.00;94.20
666;DHT22;315;48.738;9.126;2023-06-22T12:55:27;30.70;95.50
666;DHT22;315;48.738;9.126;2023-06-22T12:57:53;30.60;96.80
666;DHT22;315;48.738;9.126;2023-06-22T13:00:19;30.60;97.80
666;DHT22;315;48.738;9.126;2023-06-22T13:02:45;30.50;98.30
666;DHT22;315;48.738;9.126;2023-06-22T13:05:11;30.70;97.60
666;DHT22;315;48.738;9.126;2023-06-22T13:07:36;30.70;98.60
666;DHT22;315;48.738;9.126;2023-06-22T13:10:02;30.60;99.70
666;DHT22;315;48.738;9.126;2023-06-22T13:12:28;30.70;99.90
666;DHT22;315;48.738;9.126;2023-06-22T13:14:53;30.70;99.50
666;DHT22;315;48.738;9.126;2023-06-22T13:17:19;30.90;99.10
666;DHT22;315;48.738;9.126;2023-06-22T13:19:44;31.00;98.00
666;DHT22;315;48.738;9.126;2023-06-22T13:24:53;31.60;95.70
666;DHT22;315;48.738;9.126;2023-06-22T13:27:18;32.00;92.90
666;DHT22;315;48.738;9.126;2023-06-22T13:29:44;32.10;93.40
666;DHT22;315;48.738;9.126;2023-06-22T13:32:09;32.20;92.20
666;DHT22;315;48.738;9.126;2023-06-22T13:34:35;32.50;91.90
666;DHT22;315;48.738;9.126;2023-06-22T13:37:00;32.60;92.00
666;DHT22;315;48.738;9.126;2023-06-22T13:39:26;32.40;91.10
666;DHT22;315;48.738;9.126;2023-06-22T13:41:51;32.60;90.70
666;DHT22;315;48.738;9.126;2023-06-22T13:44:17;32.70;90.40
666;DHT22;315;48.738;9.126;2023-06-22T13:46:42;32.50;91.30
666;DHT22;315;48.738;9.126;2023-06-22T13:49:08;32.30;90.40
666;DHT22;315;48.738;9.126;2023-06-22T13:51:33;32.30;90.00
666;DHT22;315;48.738;9.126;2023-06-22T13:53:59;32.20;89.10
666;DHT22;315;48.738;9.126;2023-06-22T13:56:24;32.10;88.70
666;DHT22;315;48.738;9.126;2023-06-22T13:58:50;32.10;89.00
666;DHT22;315;48.738;9.126;2023-06-22T14:01:15;32.30;90.50
666;DHT22;315;48.738;9.126;2023-06-22T14:03:41;32.50;88.00
666;DHT22;315;48.738;9.126;2023-06-22T14:06:06;32.70;88.40
666;DHT22;315;48.738;9.126;2023-06-22T14:08:32;33.30;87.80
666;DHT22;315;48.738;9.126;2023-06-22T14:10:57;33.80;84.20
666;DHT22;315;48.738;9.126;2023-06-22T14:13:23;33.70;81.70
666;DHT22;315;48.738;9.126;2023-06-22T14:15:48;34.10;81.40
666;DHT22;315;48.738;9.126;2023-06-22T14:18:14;33.90;77.50
666;DHT22;315;48.738;9.126;2023-06-22T14:20:40;33.80;78.30
666;DHT22;315;48.738;9.126;2023-06-22T14:23:06;33.80;78.80
666;DHT22;315;48.738;9.126;2023-06-22T14:25:31;33.60;77.10
666;DHT22;315;48.738;9.126;2023-06-22T14:27:57;33.30;74.50
666;DHT22;315;48.738;9.126;2023-06-22T14:30:22;33.20;76.20
666;DHT22;315;48.738;9.126;2023-06-22T14:32:47;33.20;71.00
666;DHT22;315;48.738;9.126;2023-06-22T14:35:13;33.00;69.20
666;DHT22;315;48.738;9.126;2023-06-22T14:37:39;32.80;70.70
666;DHT22;315;48.738;9.126;2023-06-22T14:40:05;32.80;68.90
666;DHT22;315;48.738;9.126;2023-06-22T14:42:31;33.00;69.70
666;DHT22;315;48.738;9.126;2023-06-22T14:44:56;33.10;66.30
666;DHT22;315;48.738;9.126;2023-06-22T14:47:22;33.00;64.70
666;DHT22;315;48.738;9.126;2023-06-22T14:49:48;33.10;65.70
666;DHT22;315;48.738;9.126;2023-06-22T14:52:13;33.30;62.50
666;DHT22;315;48.738;9.126;2023-06-22T14:54:39;33.30;61.40
666;DHT22;315;48.738;9.126;2023-06-22T14:57:05;33.20;58.40
666;DHT22;315;48.738;9.126;2023-06-22T14:59:30;33.00;57.80
666;DHT22;315;48.738;9.126;2023-06-22T15:01:56;33.20;57.40
666;DHT22;315;48.738;9.126;2023-06-22T15:04:21;33.10;56.70
666;DHT22;315;48.738;9.126;2023-06-22T15:06:47;32.90;57.20
666;DHT22;315;48.738;9.126;2023-06-22T15:09:13;32.70;56.70
666;DHT22;315;48.738;9.126;2023-06-22T15:11:38;32.60;56.60
666;DHT22;315;48.738;9.126;2023-06-22T15:14:04;32.80;56.50
666;DHT22;315;48.738;9.126;2023-06-22T15:16:29;32.80;56.30
666;DHT22;315;48.738;9.126;2023-06-22T15:18:55;32.80;56.60
666;DHT22;315;48.738;9.126;2023-06-22T15:21:20;32.70;56.20
666;DHT22;315;48.738;9.126;2023-06-22T15:23:46;32.80;56.50
666;DHT22;315;48.738;9.126;2023-06-22T15:26:12;32.90;55.90
666;DHT22;315;48.738;9.126;2023-06-22T15:28:38;32.60;55.60
666;DHT22;315;48.738;9.126;2023-06-22T15:31:04;32.40;55.00
666;DHT22;315;48.738;9.126;2023-06-22T15:33:30;32.30;55.40
666;DHT22;315;48.738;9.126;2023-06-22T15:35:57;32.00;55.50
666;DHT22;315;48.738;9.126;2023-06-22T15:38:23;32.00;55.30
666;DHT22;315;48.738;9.126;2023-06-22T15:40:48;31.90;55.30
666;DHT22;315;48.738;9.126;2023-06-22T15:43:14;31.80;55.40
666;DHT22;315;48.738;9.126;2023-06-22T15:45:39;31.80;55.70
666;DHT22;315;48.738;9.126;2023-06-22T15:48:05;31.70;55.80
666;DHT22;315;48.738;9.126;2023-06-22T15:50:31;31.70;56.00
666;DHT22;315;48.738;9.126;2023-06-22T15:52:56;31.80;57.10
666;DHT22;315;48.738;9.126;2023-06-22T15:55:22;31.70;56.80
666;DHT22;315;48.738;9.126;2023-06-22T15:57:48;31.50;57.10
666;DHT22;315;48.738;9.126;2023-06-22T16:00:17;31.20;57.60
666;DHT22;315;48.738;9.126;2023-06-22T16:02:44;31.00;58.40
666;DHT22;315;48.738;9.126;2023-06-22T16:05:10;31.00;58.60
666;DHT22;315;48.738;9.126;2023-06-22T16:07:36;30.90;58.70
666;DHT22;315;48.738;9.126;2023-06-22T16:10:03;30.70;59.30
666;DHT22;315;48.738;9.126;2023-06-22T16:12:28;30.60;59.50
666;DHT22;315;48.738;9.126;2023-06-22T16:14:54;30.60;59.80
666;DHT22;315;48.738;9.126;2023-06-22T16:17:21;30.40;60.20
666;DHT22;315;48.738;9.126;2023-06-22T16:19:46;30.40;60.70
666;DHT22;315;48.738;9.126;2023-06-22T16:22:12;30.40;61.40
666;DHT22;315;48.738;9.126;2023-06-22T16:24:37;30.20;61.50
666;DHT22;315;48.738;9.126;2023-06-22T16:27:03;30.10;62.60
666;DHT22;315;48.738;9.126;2023-06-22T16:29:28;30.10;63.10
666;DHT22;315;48.738;9.126;2023-06-22T16:31:54;30.00;61.90
666;DHT22;315;48.738;9.126;2023-06-22T16:34:19;29.90;62.40
666;DHT22;315;48.738;9.126;2023-06-22T16:36:45;29.90;64.90